createdAt,value
2022-08-30T00:08:43.355Z,69.38
2022-08-30T00:18:50.688Z,69.63
2022-08-30T00:29:01.301Z,70.20
2022-08-30T00:39:09.151Z,69.66
2022-08-30T00:49:19.090Z,69.35
2022-08-30T00:59:28.226Z,70.33
2022-08-30T01:09:37.712Z,69.91
2022-08-30T01:19:47.751Z,69.44
2022-08-30T01:29:58.224Z,70.04
2022-08-30T01:40:06.521Z,69.21
2022-08-30T01:50:16.932Z,69.82
2022-08-30T02:00:24.636Z,69.42
2022-08-30T02:10:33.861Z,69.50
2022-08-30T02:20:42.832Z,70.62
2022-08-30T02:30:51.807Z,69.91
2022-08-30T02:40:59.513Z,69.45
2022-08-30T02:51:12.174Z,69.36
2022-08-30T03:01:21.280Z,69.52
2022-08-30T03:11:30.986Z,70.01
2022-08-30T03:21:39.301Z,69.36
2022-08-30T03:31:52.910Z,68.94
2022-08-30T03:42:03.083Z,69.05
2022-08-30T03:52:12.681Z,68.51
2022-08-30T04:02:21.303Z,69.25
2022-08-30T04:12:31.656Z,68.94
2022-08-30T04:22:39.807Z,69.43
2022-08-30T04:32:50.052Z,69.76
2022-08-30T04:42:58.390Z,69.82
2022-08-30T04:53:07.859Z,69.83
2022-08-30T05:03:13.926Z,69.62
2022-08-30T05:13:35.041Z,69.47
2022-08-30T05:23:44.247Z,71.02
2022-08-30T05:33:54.962Z,70.61
2022-08-30T05:44:03.115Z,69.18
2022-08-30T05:54:12.768Z,68.22
2022-08-30T06:04:20.619Z,72.77
2022-08-30T06:14:30.615Z,70.71
2022-08-30T06:24:56.344Z,61.66
2022-08-30T06:35:04.160Z,58.59
2022-08-30T06:45:13.728Z,58.07
2022-08-30T06:55:23.001Z,58.24
2022-08-30T07:05:30.439Z,56.02
2022-08-30T07:47:44.089Z,51.16
2022-08-30T07:57:47.331Z,51.48
2022-08-30T08:07:51.837Z,51.59
2022-08-30T08:17:55.308Z,50.75
2022-08-30T08:27:59.949Z,47.66
2022-08-30T08:38:03.219Z,49.31
2022-08-30T08:48:10.619Z,49.09
2022-08-30T08:58:23.049Z,44.28
2022-08-30T09:08:27.989Z,40.38
2022-08-30T09:18:46.938Z,39.97
2022-08-30T09:28:55.878Z,41.02
2022-08-30T09:39:01.905Z,41.79
2022-08-30T09:49:30.954Z,42.19
2022-08-30T09:59:50.211Z,40.41
2022-08-30T10:10:01.213Z,40.43
2022-08-30T10:20:17.680Z,38.63
2022-08-30T10:30:23.088Z,38.42
2022-08-30T10:40:48.830Z,39.45
2022-08-30T10:50:55.808Z,37.22
2022-08-30T11:01:19.771Z,34.36
2022-08-30T11:11:40.658Z,37.21
2022-08-30T11:21:45.146Z,40.03
2022-08-30T11:31:49.719Z,42.52
2022-08-30T11:42:11.844Z,41.36
2022-08-30T11:52:30.456Z,40.66
2022-08-30T12:02:49.965Z,39.90
2022-08-30T12:12:56.363Z,41.76
2022-08-30T12:23:18.733Z,40.33
2022-08-30T12:33:36.613Z,41.44
2022-08-30T12:43:50.441Z,39.62
2022-08-30T12:53:56.215Z,36.69
2022-08-30T13:04:04.758Z,36.67
2022-08-30T13:14:32.485Z,35.21
2022-08-30T13:24:35.948Z,35.82
2022-08-30T13:34:40.600Z,35.42
2022-08-30T13:44:43.812Z,35.90
2022-08-30T13:54:49.803Z,34.86
2022-08-30T14:04:53.502Z,36.00
2022-08-30T14:14:59.600Z,36.93
2022-08-30T14:25:03.048Z,37.17
2022-08-30T14:35:09.020Z,37.08
2022-08-30T14:45:14.234Z,37.97
2022-08-30T14:55:19.412Z,37.90
2022-08-30T15:05:22.592Z,39.17
2022-08-30T15:15:28.852Z,39.83
2022-08-30T15:25:32.035Z,39.46
2022-08-30T15:35:36.655Z,41.07
2022-08-30T15:45:39.930Z,41.82
2022-08-30T15:55:44.552Z,40.97
2022-08-30T16:05:48.697Z,39.76
2022-08-30T16:15:54.624Z,37.81
2022-08-30T16:26:03.433Z,36.90
2022-08-30T16:36:10.893Z,37.21
2022-08-30T16:46:16.293Z,36.41
2022-08-30T16:56:24.377Z,36.56
2022-08-30T17:06:29.894Z,38.72
2022-08-30T17:16:35.876Z,41.26
2022-08-30T17:26:40.227Z,40.69
2022-08-30T17:36:44.943Z,43.71
2022-08-30T17:46:49.312Z,46.35
2022-08-30T17:56:54.018Z,48.15
2022-08-30T18:06:57.560Z,48.46
2022-08-30T18:17:02.237Z,50.26
2022-08-30T18:27:05.999Z,50.42
2022-08-30T18:37:11.495Z,50.82
2022-08-30T18:47:15.715Z,52.80
2022-08-30T18:57:21.411Z,53.94
2022-08-30T19:17:50.060Z,54.23
2022-08-30T19:27:53.570Z,55.44
2022-08-30T19:37:58.277Z,56.00
2022-08-30T19:48:02.000Z,56.96
2022-08-30T19:58:06.577Z,58.06
2022-08-30T20:08:09.927Z,58.42
2022-08-30T20:18:14.966Z,57.65
2022-08-30T20:24:31.796Z,54.21
2022-08-30T20:28:18.409Z,58.39
2022-08-30T20:38:23.854Z,58.85
2022-08-30T20:48:28.694Z,59.60
2022-08-30T20:58:33.381Z,60.41
2022-08-30T21:08:36.718Z,60.64
2022-08-30T21:18:41.393Z,61.37
2022-08-30T21:28:44.645Z,61.71
2022-08-30T21:38:49.194Z,62.10
2022-08-30T21:48:52.507Z,62.36
2022-08-30T21:58:57.531Z,62.19
2022-08-30T22:09:02.550Z,63.09
2022-08-30T22:19:07.071Z,63.54
2022-08-30T22:29:10.929Z,64.65
2022-08-30T22:39:15.449Z,65.27
2022-08-30T22:49:18.608Z,64.02
2022-08-30T22:59:31.395Z,71.06
2022-08-30T23:09:35.848Z,66.01
2022-08-30T23:19:40.725Z,64.54
2022-08-30T23:30:01.236Z,63.90
2022-08-30T23:40:24.909Z,64.63
2022-08-30T23:50:45.316Z,64.62
